sensor_id;sensor_type;location;lat;lon;timestamp;P1;durP1;ratioP1;P2;durP2;ratioP2
60368;SDS011;46208;44.634;10.492;2023-04-24T00:02:36;1.40;;;0.80;;
60368;SDS011;46208;44.634;10.492;2023-04-24T00:05:43;1.70;;;0.77;;
60368;SDS011;46208;44.634;10.492;2023-04-24T00:08:46;2.10;;;1.42;;
60368;SDS011;46208;44.634;10.492;2023-04-24T00:11:49;0.80;;;0.80;;
60368;SDS011;46208;44.634;10.492;2023-04-24T00:14:52;1.38;;;0.88;;
60368;SDS011;46208;44.634;10.492;2023-04-24T00:17:56;0.77;;;0.77;;
60368;SDS011;46208;44.634;10.492;2023-04-24T00:20:59;0.57;;;0.45;;
60368;SDS011;46208;44.634;10.492;2023-04-24T00:24:03;0.75;;;0.63;;
60368;SDS011;46208;44.634;10.492;2023-04-24T00:27:06;0.60;;;0.60;;
60368;SDS011;46208;44.634;10.492;2023-04-24T00:30:10;2.80;;;1.00;;
60368;SDS011;46208;44.634;10.492;2023-04-24T00:33:13;1.48;;;1.00;;
60368;SDS011;46208;44.634;10.492;2023-04-24T00:36:17;1.05;;;0.70;;
60368;SDS011;46208;44.634;10.492;2023-04-24T00:39:23;0.95;;;0.77;;
60368;SDS011;46208;44.634;10.492;2023-04-24T00:42:26;1.13;;;0.90;;
60368;SDS011;46208;44.634;10.492;2023-04-24T00:45:30;2.53;;;0.80;;
60368;SDS011;46208;44.634;10.492;2023-04-24T00:48:34;2.80;;;0.90;;
60368;SDS011;46208;44.634;10.492;2023-04-24T00:51:37;1.30;;;1.20;;
60368;SDS011;46208;44.634;10.492;2023-04-24T00:54:41;2.15;;;1.33;;
60368;SDS011;46208;44.634;10.492;2023-04-24T00:57:44;0.80;;;0.80;;
60368;SDS011;46208;44.634;10.492;2023-04-24T01:00:48;1.00;;;0.80;;
60368;SDS011;46208;44.634;10.492;2023-04-24T01:03:53;1.08;;;0.98;;
60368;SDS011;46208;44.634;10.492;2023-04-24T01:06:56;1.05;;;0.80;;
60368;SDS011;46208;44.634;10.492;2023-04-24T01:10:00;0.95;;;0.77;;
60368;SDS011;46208;44.634;10.492;2023-04-24T01:13:03;1.27;;;1.08;;
60368;SDS011;46208;44.634;10.492;2023-04-24T01:16:07;1.15;;;0.95;;
60368;SDS011;46208;44.634;10.492;2023-04-24T01:19:11;1.35;;;0.93;;
60368;SDS011;46208;44.634;10.492;2023-04-24T01:22:17;1.25;;;0.90;;
60368;SDS011;46208;44.634;10.492;2023-04-24T01:25:20;1.65;;;1.02;;
60368;SDS011;46208;44.634;10.492;2023-04-24T01:28:24;1.13;;;1.00;;
60368;SDS011;46208;44.634;10.492;2023-04-24T01:31:27;4.45;;;1.65;;
60368;SDS011;46208;44.634;10.492;2023-04-24T01:34:31;1.27;;;0.98;;
60368;SDS011;46208;44.634;10.492;2023-04-24T01:37:35;4.93;;;2.08;;
60368;SDS011;46208;44.634;10.492;2023-04-24T01:40:40;2.70;;;1.92;;
60368;SDS011;46208;44.634;10.492;2023-04-24T01:43:43;2.67;;;1.52;;
60368;SDS011;46208;44.634;10.492;2023-04-24T01:46:46;2.58;;;1.33;;
60368;SDS011;46208;44.634;10.492;2023-04-24T01:49:50;1.58;;;1.48;;
60368;SDS011;46208;44.634;10.492;2023-04-24T01:52:53;2.20;;;1.88;;
60368;SDS011;46208;44.634;10.492;2023-04-24T01:55:56;3.10;;;1.73;;
60368;SDS011;46208;44.634;10.492;2023-04-24T01:59:02;3.15;;;1.75;;
60368;SDS011;46208;44.634;10.492;2023-04-24T02:02:06;2.33;;;1.77;;
60368;SDS011;46208;44.634;10.492;2023-04-24T02:05:09;1.95;;;1.55;;
60368;SDS011;46208;44.634;10.492;2023-04-24T02:08:14;3.85;;;2.55;;
60368;SDS011;46208;44.634;10.492;2023-04-24T02:11:17;1.88;;;1.77;;
60368;SDS011;46208;44.634;10.492;2023-04-24T02:14:20;2.28;;;2.03;;
60368;SDS011;46208;44.634;10.492;2023-04-24T02:17:24;3.58;;;2.65;;
60368;SDS011;46208;44.634;10.492;2023-04-24T02:20:27;2.53;;;1.83;;
60368;SDS011;46208;44.634;10.492;2023-04-24T02:23:30;2.45;;;1.58;;
60368;SDS011;46208;44.634;10.492;2023-04-24T02:26:34;3.00;;;2.22;;
60368;SDS011;46208;44.634;10.492;2023-04-24T02:29:37;2.20;;;2.00;;
60368;SDS011;46208;44.634;10.492;2023-04-24T02:32:40;3.17;;;2.17;;
60368;SDS011;46208;44.634;10.492;2023-04-24T02:35:48;1.48;;;1.30;;
60368;SDS011;46208;44.634;10.492;2023-04-24T02:38:51;2.38;;;1.88;;
60368;SDS011;46208;44.634;10.492;2023-04-24T02:41:54;3.35;;;1.80;;
60368;SDS011;46208;44.634;10.492;2023-04-24T02:44:57;2.65;;;2.45;;
60368;SDS011;46208;44.634;10.492;2023-04-24T02:48:00;6.50;;;2.42;;
60368;SDS011;46208;44.634;10.492;2023-04-24T02:51:03;4.68;;;2.53;;
60368;SDS011;46208;44.634;10.492;2023-04-24T02:54:07;2.65;;;2.28;;
60368;SDS011;46208;44.634;10.492;2023-04-24T02:57:11;2.22;;;2.03;;
60368;SDS011;46208;44.634;10.492;2023-04-24T03:00:17;2.65;;;2.35;;
60368;SDS011;46208;44.634;10.492;2023-04-24T03:03:21;2.10;;;1.90;;
60368;SDS011;46208;44.634;10.492;2023-04-24T03:06:25;2.28;;;1.95;;
60368;SDS011;46208;44.634;10.492;2023-04-24T03:09:30;4.47;;;2.80;;
60368;SDS011;46208;44.634;10.492;2023-04-24T03:12:33;1.55;;;1.40;;
60368;SDS011;46208;44.634;10.492;2023-04-24T03:15:37;4.00;;;3.30;;
60368;SDS011;46208;44.634;10.492;2023-04-24T03:18:40;2.60;;;2.33;;
60368;SDS011;46208;44.634;10.492;2023-04-24T03:21:45;2.70;;;1.88;;
60368;SDS011;46208;44.634;10.492;2023-04-24T03:24:49;6.53;;;2.97;;
60368;SDS011;46208;44.634;10.492;2023-04-24T03:27:54;2.50;;;2.22;;
60368;SDS011;46208;44.634;10.492;2023-04-24T03:31:16;4.55;;;3.10;;
60368;SDS011;46208;44.634;10.492;2023-04-24T03:34:20;2.45;;;2.17;;
60368;SDS011;46208;44.634;10.492;2023-04-24T03:37:24;2.25;;;1.92;;
60368;SDS011;46208;44.634;10.492;2023-04-24T03:40:39;5.15;;;2.75;;
60368;SDS011;46208;44.634;10.492;2023-04-24T03:43:53;3.38;;;2.30;;
60368;SDS011;46208;44.634;10.492;2023-04-24T03:46:57;2.20;;;2.03;;
60368;SDS011;46208;44.634;10.492;2023-04-24T03:50:01;4.68;;;2.25;;
60368;SDS011;46208;44.634;10.492;2023-04-24T03:53:06;2.50;;;1.67;;
60368;SDS011;46208;44.634;10.492;2023-04-24T03:56:14;2.25;;;1.80;;
60368;SDS011;46208;44.634;10.492;2023-04-24T03:59:18;5.57;;;1.48;;
60368;SDS011;46208;44.634;10.492;2023-04-24T04:02:26;2.97;;;1.13;;
60368;SDS011;46208;44.634;10.492;2023-04-24T04:05:30;2.10;;;1.90;;
60368;SDS011;46208;44.634;10.492;2023-04-24T04:08:33;3.30;;;1.25;;
60368;SDS011;46208;44.634;10.492;2023-04-24T04:11:38;4.78;;;1.75;;
60368;SDS011;46208;44.634;10.492;2023-04-24T04:14:42;2.28;;;2.08;;
60368;SDS011;46208;44.634;10.492;2023-04-24T04:17:45;3.33;;;1.80;;
60368;SDS011;46208;44.634;10.492;2023-04-24T04:20:49;7.28;;;1.92;;
60368;SDS011;46208;44.634;10.492;2023-04-24T04:23:53;5.97;;;1.95;;
60368;SDS011;46208;44.634;10.492;2023-04-24T04:27:03;2.30;;;2.17;;
60368;SDS011;46208;44.634;10.492;2023-04-24T04:30:13;3.42;;;1.55;;
60368;SDS011;46208;44.634;10.492;2023-04-24T04:33:33;2.25;;;1.98;;
60368;SDS011;46208;44.634;10.492;2023-04-24T04:36:37;3.05;;;1.83;;
60368;SDS011;46208;44.634;10.492;2023-04-24T04:40:09;1.48;;;1.38;;
60368;SDS011;46208;44.634;10.492;2023-04-24T04:43:20;3.63;;;2.00;;
60368;SDS011;46208;44.634;10.492;2023-04-24T04:46:28;2.67;;;2.10;;
60368;SDS011;46208;44.634;10.492;2023-04-24T04:49:56;2.78;;;1.60;;
60368;SDS011;46208;44.634;10.492;2023-04-24T04:53:03;2.08;;;1.48;;
60368;SDS011;46208;44.634;10.492;2023-04-24T04:56:10;4.78;;;1.95;;
60368;SDS011;46208;44.634;10.492;2023-04-24T04:59:18;1.90;;;1.48;;
60368;SDS011;46208;44.634;10.492;2023-04-24T05:02:21;4.90;;;1.52;;
60368;SDS011;46208;44.634;10.492;2023-04-24T05:05:24;1.67;;;1.40;;
60368;SDS011;46208;44.634;10.492;2023-04-24T05:08:28;2.17;;;1.60;;
60368;SDS011;46208;44.634;10.492;2023-04-24T05:11:32;1.38;;;1.27;;
60368;SDS011;46208;44.634;10.492;2023-04-24T05:14:38;3.40;;;1.60;;
60368;SDS011;46208;44.634;10.492;2023-04-24T05:17:41;1.27;;;0.98;;
60368;SDS011;46208;44.634;10.492;2023-04-24T05:20:46;1.33;;;1.05;;
60368;SDS011;46208;44.634;10.492;2023-04-24T05:23:50;2.33;;;2.15;;
60368;SDS011;46208;44.634;10.492;2023-04-24T05:27:01;2.08;;;1.42;;
60368;SDS011;46208;44.634;10.492;2023-04-24T05:30:11;2.28;;;1.67;;
60368;SDS011;46208;44.634;10.492;2023-04-24T05:33:15;2.42;;;1.95;;
60368;SDS011;46208;44.634;10.492;2023-04-24T05:36:19;3.00;;;1.77;;
60368;SDS011;46208;44.634;10.492;2023-04-24T05:39:22;0.93;;;0.93;;
60368;SDS011;46208;44.634;10.492;2023-04-24T05:42:28;3.67;;;2.67;;
60368;SDS011;46208;44.634;10.492;2023-04-24T05:45:33;2.70;;;1.67;;
60368;SDS011;46208;44.634;10.492;2023-04-24T05:48:39;3.25;;;2.20;;
60368;SDS011;46208;44.634;10.492;2023-04-24T05:51:43;2.55;;;2.10;;
60368;SDS011;46208;44.634;10.492;2023-04-24T05:54:46;3.05;;;1.98;;
60368;SDS011;46208;44.634;10.492;2023-04-24T05:57:54;1.42;;;1.25;;
60368;SDS011;46208;44.634;10.492;2023-04-24T06:00:58;1.38;;;1.00;;
60368;SDS011;46208;44.634;10.492;2023-04-24T06:04:04;2.47;;;2.28;;
60368;SDS011;46208;44.634;10.492;2023-04-24T06:07:08;3.45;;;2.20;;
60368;SDS011;46208;44.634;10.492;2023-04-24T06:10:12;2.35;;;2.13;;
60368;SDS011;46208;44.634;10.492;2023-04-24T06:13:18;4.32;;;1.92;;
60368;SDS011;46208;44.634;10.492;2023-04-24T06:16:38;2.58;;;2.15;;
60368;SDS011;46208;44.634;10.492;2023-04-24T06:19:51;4.97;;;2.75;;
60368;SDS011;46208;44.634;10.492;2023-04-24T06:22:56;4.00;;;2.33;;
60368;SDS011;46208;44.634;10.492;2023-04-24T06:25:59;2.40;;;2.10;;
60368;SDS011;46208;44.634;10.492;2023-04-24T06:29:03;3.72;;;2.58;;
60368;SDS011;46208;44.634;10.492;2023-04-24T06:32:06;3.30;;;2.53;;
60368;SDS011;46208;44.634;10.492;2023-04-24T06:35:09;2.55;;;2.08;;
60368;SDS011;46208;44.634;10.492;2023-04-24T06:38:15;2.50;;;1.80;;
60368;SDS011;46208;44.634;10.492;2023-04-24T06:41:18;2.47;;;2.20;;
60368;SDS011;46208;44.634;10.492;2023-04-24T06:44:22;4.20;;;2.30;;
60368;SDS011;46208;44.634;10.492;2023-04-24T06:47:25;3.40;;;2.35;;
60368;SDS011;46208;44.634;10.492;2023-04-24T06:50:28;3.30;;;2.72;;
60368;SDS011;46208;44.634;10.492;2023-04-24T06:53:31;2.70;;;1.95;;
60368;SDS011;46208;44.634;10.492;2023-04-24T06:56:34;3.28;;;2.50;;
60368;SDS011;46208;44.634;10.492;2023-04-24T06:59:37;2.90;;;2.22;;
60368;SDS011;46208;44.634;10.492;2023-04-24T07:02:41;5.03;;;2.95;;
60368;SDS011;46208;44.634;10.492;2023-04-24T07:05:44;2.08;;;1.55;;
60368;SDS011;46208;44.634;10.492;2023-04-24T07:08:49;2.13;;;1.83;;
60368;SDS011;46208;44.634;10.492;2023-04-24T07:11:53;2.88;;;2.25;;
60368;SDS011;46208;44.634;10.492;2023-04-24T07:14:56;4.03;;;2.08;;
60368;SDS011;46208;44.634;10.492;2023-04-24T07:17:59;2.45;;;1.67;;
60368;SDS011;46208;44.634;10.492;2023-04-24T07:21:03;2.28;;;1.83;;
60368;SDS011;46208;44.634;10.492;2023-04-24T07:24:06;2.95;;;2.15;;
60368;SDS011;46208;44.634;10.492;2023-04-24T07:27:13;3.58;;;1.50;;
60368;SDS011;46208;44.634;10.492;2023-04-24T07:30:17;4.10;;;2.50;;
60368;SDS011;46208;44.634;10.492;2023-04-24T07:33:21;2.83;;;2.35;;
60368;SDS011;46208;44.634;10.492;2023-04-24T07:36:24;3.45;;;2.17;;
60368;SDS011;46208;44.634;10.492;2023-04-24T07:39:29;2.58;;;2.00;;
60368;SDS011;46208;44.634;10.492;2023-04-24T07:42:33;3.55;;;2.85;;
60368;SDS011;46208;44.634;10.492;2023-04-24T07:45:37;4.32;;;3.00;;
60368;SDS011;46208;44.634;10.492;2023-04-24T07:48:40;3.55;;;2.47;;
60368;SDS011;46208;44.634;10.492;2023-04-24T07:51:44;3.10;;;2.17;;
60368;SDS011;46208;44.634;10.492;2023-04-24T07:54:48;4.03;;;2.85;;
60368;SDS011;46208;44.634;10.492;2023-04-24T07:57:52;6.78;;;3.42;;
60368;SDS011;46208;44.634;10.492;2023-04-24T08:00:55;4.05;;;2.92;;
60368;SDS011;46208;44.634;10.492;2023-04-24T08:03:59;7.60;;;3.40;;
60368;SDS011;46208;44.634;10.492;2023-04-24T08:07:02;3.47;;;2.42;;
60368;SDS011;46208;44.634;10.492;2023-04-24T08:10:05;6.47;;;2.58;;
60368;SDS011;46208;44.634;10.492;2023-04-24T08:13:09;3.50;;;2.38;;
60368;SDS011;46208;44.634;10.492;2023-04-24T08:16:14;4.45;;;2.47;;
60368;SDS011;46208;44.634;10.492;2023-04-24T08:19:18;2.22;;;1.83;;
60368;SDS011;46208;44.634;10.492;2023-04-24T08:22:21;4.00;;;2.25;;
60368;SDS011;46208;44.634;10.492;2023-04-24T08:25:25;3.10;;;2.22;;
60368;SDS011;46208;44.634;10.492;2023-04-24T08:28:28;2.58;;;2.05;;
60368;SDS011;46208;44.634;10.492;2023-04-24T08:31:32;4.57;;;2.50;;
60368;SDS011;46208;44.634;10.492;2023-04-24T08:34:35;6.80;;;3.40;;
60368;SDS011;46208;44.634;10.492;2023-04-24T08:37:38;4.07;;;2.60;;
60368;SDS011;46208;44.634;10.492;2023-04-24T08:40:41;7.88;;;4.07;;
60368;SDS011;46208;44.634;10.492;2023-04-24T08:43:45;7.18;;;3.83;;
60368;SDS011;46208;44.634;10.492;2023-04-24T08:46:49;8.50;;;2.95;;
60368;SDS011;46208;44.634;10.492;2023-04-24T08:49:54;3.10;;;2.55;;
60368;SDS011;46208;44.634;10.492;2023-04-24T08:53:00;2.97;;;2.58;;
60368;SDS011;46208;44.634;10.492;2023-04-24T08:56:04;3.67;;;2.33;;
60368;SDS011;46208;44.634;10.492;2023-04-24T08:59:07;3.70;;;2.25;;
60368;SDS011;46208;44.634;10.492;2023-04-24T09:02:12;3.53;;;2.85;;
60368;SDS011;46208;44.634;10.492;2023-04-24T09:05:16;4.28;;;2.80;;
60368;SDS011;46208;44.634;10.492;2023-04-24T09:08:21;4.88;;;2.80;;
60368;SDS011;46208;44.634;10.492;2023-04-24T09:11:26;3.60;;;2.22;;
60368;SDS011;46208;44.634;10.492;2023-04-24T09:14:30;3.58;;;2.60;;
60368;SDS011;46208;44.634;10.492;2023-04-24T09:17:34;5.80;;;2.38;;
60368;SDS011;46208;44.634;10.492;2023-04-24T09:21:00;4.20;;;2.78;;
60368;SDS011;46208;44.634;10.492;2023-04-24T09:24:05;3.00;;;2.70;;
60368;SDS011;46208;44.634;10.492;2023-04-24T09:27:10;4.30;;;2.40;;
60368;SDS011;46208;44.634;10.492;2023-04-24T09:30:14;3.80;;;2.58;;
60368;SDS011;46208;44.634;10.492;2023-04-24T09:33:23;3.63;;;2.33;;
60368;SDS011;46208;44.634;10.492;2023-04-24T09:36:30;3.17;;;2.47;;
60368;SDS011;46208;44.634;10.492;2023-04-24T09:39:37;5.53;;;2.95;;
60368;SDS011;46208;44.634;10.492;2023-04-24T09:42:51;2.20;;;2.00;;
60368;SDS011;46208;44.634;10.492;2023-04-24T09:45:58;3.22;;;1.98;;
60368;SDS011;46208;44.634;10.492;2023-04-24T09:49:09;4.43;;;2.55;;
60368;SDS011;46208;44.634;10.492;2023-04-24T09:52:13;3.88;;;1.95;;
60368;SDS011;46208;44.634;10.492;2023-04-24T09:55:19;3.78;;;1.95;;
60368;SDS011;46208;44.634;10.492;2023-04-24T09:58:25;4.32;;;2.30;;
60368;SDS011;46208;44.634;10.492;2023-04-24T10:01:32;3.28;;;2.05;;
60368;SDS011;46208;44.634;10.492;2023-04-24T10:04:36;3.23;;;1.90;;
60368;SDS011;46208;44.634;10.492;2023-04-24T10:07:39;1.48;;;1.38;;
60368;SDS011;46208;44.634;10.492;2023-04-24T10:10:43;2.30;;;1.85;;
60368;SDS011;46208;44.634;10.492;2023-04-24T10:13:46;3.60;;;2.10;;
60368;SDS011;46208;44.634;10.492;2023-04-24T10:16:54;2.53;;;2.08;;
60368;SDS011;46208;44.634;10.492;2023-04-24T10:19:58;2.42;;;1.60;;
60368;SDS011;46208;44.634;10.492;2023-04-24T10:23:02;1.92;;;1.42;;
60368;SDS011;46208;44.634;10.492;2023-04-24T10:26:06;2.05;;;1.38;;
60368;SDS011;46208;44.634;10.492;2023-04-24T10:29:13;1.73;;;1.30;;
60368;SDS011;46208;44.634;10.492;2023-04-24T10:32:18;3.25;;;1.33;;
60368;SDS011;46208;44.634;10.492;2023-04-24T10:35:21;3.53;;;2.03;;
60368;SDS011;46208;44.634;10.492;2023-04-24T10:38:27;2.83;;;2.10;;
60368;SDS011;46208;44.634;10.492;2023-04-24T10:41:32;1.90;;;1.70;;
60368;SDS011;46208;44.634;10.492;2023-04-24T10:44:36;1.90;;;1.30;;
60368;SDS011;46208;44.634;10.492;2023-04-24T10:47:40;3.33;;;1.73;;
60368;SDS011;46208;44.634;10.492;2023-04-24T10:50:45;1.60;;;1.50;;
60368;SDS011;46208;44.634;10.492;2023-04-24T10:53:52;2.30;;;1.80;;
60368;SDS011;46208;44.634;10.492;2023-04-24T11:00:21;2.60;;;1.20;;
